Time;durP1;ratioP1;P1;durP2;ratioP2;P2;SDS_P1;SDS_P2;PMS_P1;PMS_P2;Temp;Humidity;BMP_temperature;BMP_pressure;BME280_temperature;BME280_humidity;BME280_pressure;Samples;Min_cycle;Max_cycle;Signal;HPM_P1;HPM_P2
2022/05/21 00:00:37;;;;;;;3.28;0.45;;;;;;;9.13;55.32;101551.09;4964539;28;20113;-74
2022/05/21 00:03:04;;;;;;;1.30;0.30;;;;;;;8.75;56.40;101550.19;4962728;28;20094;-77
2022/05/21 00:05:33;;;;;;;4.43;0.60;;;;;;;8.84;56.02;101549.13;4957881;28;20111;-76
2022/05/21 00:07:59;;;;;;;3.75;0.50;;;;;;;8.76;56.31;101550.16;4955963;28;20043;-75
2022/05/21 00:10:26;;;;;;;3.85;0.45;;;;;;;8.59;57.05;101544.41;4947628;28;20042;-78
2022/05/21 00:12:52;;;;;;;2.30;0.55;;;;;;;8.11;58.49;101542.78;4972057;28;20572;-75
2022/05/21 00:15:21;;;;;;;3.55;0.73;;;;;;;8.36;57.75;101547.50;4943028;28;20059;-76
2022/05/21 00:17:47;;;;;;;1.63;0.50;;;;;;;8.41;57.82;101553.47;4958653;28;20039;-75
2022/05/21 00:22:57;;;;;;;3.15;0.50;;;;;;;8.70;57.08;101552.03;4972106;28;20468;-76
2022/05/21 00:25:23;;;;;;;2.65;0.30;;;;;;;8.22;57.93;101554.72;4975623;28;20043;-75
2022/05/21 00:27:50;;;;;;;10.07;1.05;;;;;;;8.24;58.48;101553.78;4973609;28;20114;-76
2022/05/21 00:30:16;;;;;;;6.10;1.00;;;;;;;8.20;58.57;101559.09;4957772;28;20041;-77
2022/05/21 00:32:42;;;;;;;2.30;1.00;;;;;;;8.46;58.31;101556.84;4956623;28;20042;-75
2022/05/21 00:35:08;;;;;;;1.77;0.90;;;;;;;8.28;59.32;101562.41;4973627;28;20035;-74
2022/05/21 00:37:34;;;;;;;6.90;1.58;;;;;;;8.53;58.94;101570.59;4957073;28;20125;-76
2022/05/21 00:40:00;;;;;;;4.22;1.40;;;;;;;8.95;57.58;101568.84;4963126;28;20715;-77
2022/05/21 00:42:25;;;;;;;2.15;0.82;;;;;;;8.38;59.01;101561.31;4959025;28;20062;-75
2022/05/21 00:44:51;;;;;;;5.43;1.38;;;;;;;8.61;58.13;101562.63;4959509;28;20569;-76
2022/05/21 00:47:17;;;;;;;2.83;1.55;;;;;;;8.42;59.32;101563.00;4948978;28;20108;-74
2022/05/21 00:49:44;;;;;;;3.85;1.20;;;;;;;8.82;57.91;101563.94;4975381;28;20066;-74
2022/05/21 00:52:19;;;;;;;5.93;2.33;;;;;;;8.45;59.41;101565.56;4973944;28;21117;-75
2022/05/21 00:54:51;;;;;;;6.63;2.05;;;;;;;9.01;57.57;101569.59;4963956;28;20359;-74
2022/05/21 00:57:43;;;;;;;5.40;1.73;;;;;;;8.67;57.95;101565.97;4954716;28;20631;-76
2022/05/21 01:00:19;;;;;;;2.57;1.60;;;;;;;8.78;57.95;101560.53;4958504;28;20047;-76
2022/05/21 01:02:50;;;;;;;2.85;1.50;;;;;;;8.46;58.61;101550.78;4940172;28;20047;-77
2022/05/21 01:05:18;;;;;;;6.75;1.90;;;;;;;8.87;57.48;101555.13;4965390;28;20090;-76
2022/05/21 01:07:45;;;;;;;6.07;2.28;;;;;;;8.89;57.47;101548.13;4961452;28;20065;-75
2022/05/21 01:10:15;;;;;;;5.05;1.75;;;;;;;9.02;57.55;101558.31;4961158;28;20042;-76
2022/05/21 01:12:45;;;;;;;5.82;2.10;;;;;;;9.19;56.82;101562.25;4958371;28;20681;-75
2022/05/21 01:15:14;;;;;;;4.70;1.60;;;;;;;9.25;56.72;101561.22;4965670;28;20031;-77
2022/05/21 01:17:40;;;;;;;7.03;1.65;;;;;;;8.78;57.77;101557.94;4973515;28;20051;-75
2022/05/21 01:20:13;;;;;;;5.05;1.60;;;;;;;9.17;56.84;101560.56;4970405;28;20035;-77
2022/05/21 01:22:41;;;;;;;3.75;1.58;;;;;;;8.85;57.66;101558.66;4958348;28;20043;-77
2022/05/21 01:25:08;;;;;;;6.40;1.95;;;;;;;8.87;57.73;101560.34;4953408;28;20058;-76
2022/05/21 01:27:34;;;;;;;6.43;1.70;;;;;;;8.83;57.21;101550.00;4941927;28;20047;-79
2022/05/21 01:30:03;;;;;;;6.55;2.35;;;;;;;8.64;58.03;101546.94;4958665;28;20045;-76
2022/05/21 01:32:28;;;;;;;5.45;2.30;;;;;;;8.90;57.04;101543.81;4955948;28;20042;-76
2022/05/21 01:34:54;;;;;;;5.07;2.15;;;;;;;8.80;57.05;101547.47;4963400;28;20031;-77
2022/05/21 01:37:20;;;;;;;4.63;1.63;;;;;;;9.04;56.62;101535.66;4959060;28;20037;-77
2022/05/21 01:39:45;;;;;;;3.50;1.73;;;;;;;8.98;56.95;101540.13;4961926;28;20039;-76
2022/05/21 01:42:11;;;;;;;7.47;1.55;;;;;;;8.96;57.09;101539.31;4944947;28;20504;-78
2022/05/21 01:44:39;;;;;;;6.20;1.88;;;;;;;9.10;56.07;101540.75;4961368;28;20800;-77
2022/05/21 01:47:11;;;;;;;2.65;1.83;;;;;;;9.25;55.64;101540.34;4943885;28;20039;-76
2022/05/21 01:49:39;;;;;;;5.38;2.38;;;;;;;9.05;56.09;101537.34;4958993;28;20032;-77
2022/05/21 01:52:06;;;;;;;2.78;1.67;;;;;;;8.66;57.51;101534.72;4972270;28;20083;-75
2022/05/21 01:54:33;;;;;;;4.28;1.38;;;;;;;8.92;56.27;101542.03;4960031;28;20494;-77
2022/05/21 01:56:58;;;;;;;4.13;1.67;;;;;;;8.52;57.60;101538.47;4958182;28;20034;-76
2022/05/21 01:59:25;;;;;;;3.25;1.98;;;;;;;8.78;57.09;101534.47;4955415;28;20031;-76
2022/05/21 02:01:50;;;;;;;5.45;2.08;;;;;;;8.95;56.06;101534.97;4958045;28;20121;-77
2022/05/21 02:04:17;;;;;;;5.60;1.90;;;;;;;9.01;55.76;101531.38;4958985;28;20143;-77
2022/05/21 02:06:43;;;;;;;3.47;2.33;;;;;;;8.97;56.38;101538.41;4971163;28;20106;-77
2022/05/21 02:09:10;;;;;;;5.13;2.67;;;;;;;8.91;56.34;101535.91;4946455;28;20462;-75
2022/05/21 02:11:36;;;;;;;6.00;2.28;;;;;;;8.75;56.96;101531.94;4973838;28;20126;-76
2022/05/21 02:14:02;;;;;;;5.05;2.33;;;;;;;9.04;56.73;101539.13;4959663;28;20057;-76
2022/05/21 02:16:30;;;;;;;7.47;2.78;;;;;;;9.19;56.69;101532.69;4977381;28;20073;-76
2022/05/21 02:18:57;;;;;;;3.75;2.72;;;;;;;9.26;56.45;101531.66;4968438;28;20612;-76
2022/05/21 02:21:23;;;;;;;8.52;2.92;;;;;;;9.32;56.32;101520.19;4956078;28;20031;-79
2022/05/21 02:23:48;;;;;;;6.40;2.20;;;;;;;9.46;56.27;101512.06;4959422;28;20422;-77
2022/05/21 02:26:17;;;;;;;6.38;2.58;;;;;;;9.09;57.34;101518.16;4962968;28;20031;-75
2022/05/21 02:28:43;;;;;;;8.20;3.50;;;;;;;9.18;57.20;101517.94;4960499;28;20061;-77
2022/05/21 02:31:08;;;;;;;9.65;3.25;;;;;;;8.66;58.86;101504.31;4955830;28;20504;-77
2022/05/21 02:33:34;;;;;;;8.80;3.80;;;;;;;8.60;58.62;101503.59;4955218;28;20051;-77
2022/05/21 02:35:59;;;;;;;5.63;4.05;;;;;;;8.63;59.47;101506.09;4966946;28;20533;-79
2022/05/21 02:41:11;;;;;;;8.82;4.97;;;;;;;8.93;59.04;101497.63;4968063;28;20437;-77
2022/05/21 02:43:36;;;;;;;11.40;4.72;;;;;;;8.84;59.08;101503.06;4948680;28;20126;-77
2022/05/21 02:46:02;;;;;;;13.00;6.22;;;;;;;8.47;59.87;101498.66;4936667;28;20592;-75
2022/05/21 02:48:29;;;;;;;15.05;5.55;;;;;;;8.71;59.41;101499.03;4957433;28;20110;-78
2022/05/21 02:50:55;;;;;;;11.55;6.18;;;;;;;9.15;58.40;101504.97;4948598;28;20071;-76
2022/05/21 02:53:21;;;;;;;12.60;7.22;;;;;;;8.62;59.96;101494.84;4936939;28;20127;-79
2022/05/21 02:55:47;;;;;;;13.45;6.80;;;;;;;8.69;60.00;101487.75;4967088;28;20267;-79
2022/05/21 02:58:14;;;;;;;10.60;6.95;;;;;;;8.56;60.38;101488.03;4935845;28;20062;-78
2022/05/21 03:00:42;;;;;;;14.60;7.25;;;;;;;8.71;60.20;101481.63;4939288;28;20062;-77
2022/05/21 03:03:07;;;;;;;14.38;8.50;;;;;;;8.95;59.72;101479.38;4947141;28;20047;-76
2022/05/21 03:05:33;;;;;;;15.05;8.38;;;;;;;9.24;59.09;101478.66;4952897;28;22248;-78
2022/05/21 03:08:00;;;;;;;15.95;9.02;;;;;;;9.51;58.33;101476.25;4944341;28;20584;-77
2022/05/21 03:10:28;;;;;;;16.83;8.80;;;;;;;9.23;59.31;101479.56;4950231;28;20030;-77
2022/05/21 03:13:00;;;;;;;16.33;9.05;;;;;;;9.16;58.93;101470.16;4967367;28;20056;-78
2022/05/21 03:15:38;;;;;;;18.98;9.13;;;;;;;9.43;59.06;101480.78;4969685;28;20065;-78
2022/05/21 03:18:06;;;;;;;14.52;9.85;;;;;;;9.35;59.34;101479.25;4965176;28;20354;-78
2022/05/21 03:20:32;;;;;;;19.58;9.68;;;;;;;9.38;59.32;101479.16;4956402;28;20027;-78
2022/05/21 03:22:58;;;;;;;18.17;9.75;;;;;;;9.34;59.75;101479.28;4953323;28;20479;-77
2022/05/21 03:25:24;;;;;;;19.80;11.30;;;;;;;9.17;60.04;101485.78;4942745;28;20488;-77
2022/05/21 03:27:50;;;;;;;20.30;10.48;;;;;;;9.60;59.24;101478.63;4940099;28;20053;-76
2022/05/21 03:30:18;;;;;;;18.80;10.95;;;;;;;8.67;61.63;101473.88;4970058;28;20798;-76
2022/05/21 03:32:44;;;;;;;17.15;10.50;;;;;;;9.21;60.40;101468.31;4937843;28;20039;-78
2022/05/21 03:35:12;;;;;;;20.80;12.02;;;;;;;8.92;61.48;101476.84;4966098;28;20061;-76
2022/05/21 03:37:38;;;;;;;19.27;11.48;;;;;;;8.96;61.37;101466.31;4956431;28;20047;-77
2022/05/21 03:40:06;;;;;;;17.50;10.77;;;;;;;8.54;62.70;101460.28;4952270;28;20066;-75
2022/05/21 03:42:31;;;;;;;16.65;10.70;;;;;;;9.09;61.19;101469.44;4952344;28;20027;-76
2022/05/21 03:44:57;;;;;;;21.52;11.02;;;;;;;8.97;61.78;101461.94;4954120;28;20042;-79
2022/05/21 03:47:22;;;;;;;20.05;10.85;;;;;;;9.29;60.95;101468.97;4959478;28;20177;-77
2022/05/21 03:49:48;;;;;;;18.27;11.00;;;;;;;8.95;61.80;101472.41;4944642;28;20031;-77
2022/05/21 03:52:13;;;;;;;20.60;12.13;;;;;;;9.46;60.39;101459.88;4956160;28;20569;-77
2022/05/21 03:54:39;;;;;;;18.30;12.45;;;;;;;9.26;61.04;101458.63;4967942;28;20903;-80
2022/05/21 03:57:05;;;;;;;21.55;12.93;;;;;;;8.48;63.81;101457.81;4954853;28;20351;-77
2022/05/21 03:59:33;;;;;;;18.13;11.63;;;;;;;9.26;61.54;101463.84;4959071;28;20055;-78
2022/05/21 04:01:58;;;;;;;17.85;11.50;;;;;;;9.34;61.25;101463.63;4959624;28;20037;-76
2022/05/21 04:04:24;;;;;;;20.10;12.52;;;;;;;9.00;62.40;101461.00;4944479;28;20054;-76
2022/05/21 04:06:50;;;;;;;24.02;13.80;;;;;;;9.11;62.20;101467.66;4952947;28;20041;-75
2022/05/21 04:09:15;;;;;;;19.10;12.18;;;;;;;9.22;62.14;101456.97;4940138;28;20636;-79
2022/05/21 04:11:41;;;;;;;21.35;13.57;;;;;;;9.64;60.99;101458.53;4958352;28;20035;-78
2022/05/21 04:14:07;;;;;;;20.33;13.20;;;;;;;9.28;61.94;101458.59;4937469;28;20047;-80
2022/05/21 04:16:34;;;;;;;26.02;13.57;;;;;;;9.75;60.80;101452.09;4971243;28;20031;-79
2022/05/21 04:19:00;;;;;;;28.00;13.90;;;;;;;9.75;60.77;101452.09;4953702;28;20105;-77
2022/05/21 04:21:26;;;;;;;27.02;14.18;;;;;;;9.69;61.59;101449.66;4945138;28;20098;-78
2022/05/21 04:23:52;;;;;;;26.52;15.07;;;;;;;10.00;60.52;101449.69;4957441;28;20047;-78
2022/05/21 04:26:18;;;;;;;23.58;14.05;;;;;;;9.98;60.63;101458.47;4956267;28;20050;-76
2022/05/21 04:28:43;;;;;;;30.52;15.48;;;;;;;9.95;61.07;101454.19;4956952;28;20445;-78
2022/05/21 04:31:10;;;;;;;26.70;14.20;;;;;;;9.86;61.35;101456.22;4953235;28;20035;-78
2022/05/21 04:33:35;;;;;;;21.58;13.70;;;;;;;9.72;62.26;101457.41;4945751;28;20470;-78
2022/05/21 04:36:19;;;;;;;24.05;12.68;;;;;;;9.79;62.21;101448.56;4957805;28;20062;-78
2022/05/21 04:38:50;;;;;;;24.67;13.18;;;;;;;10.10;61.52;101447.69;4956863;28;20062;-77
2022/05/21 04:41:17;;;;;;;23.57;11.80;;;;;;;10.26;61.46;101455.94;4954295;28;20119;-79
2022/05/21 04:43:42;;;;;;;19.08;12.80;;;;;;;9.66;63.15;101452.38;4958375;28;21093;-78
2022/05/21 04:46:09;;;;;;;19.65;11.40;;;;;;;10.31;60.91;101461.03;4951499;28;20031;-77
2022/05/21 04:48:35;;;;;;;17.58;10.65;;;;;;;10.18;61.43;101456.16;4936235;28;20102;-78
2022/05/21 04:51:03;;;;;;;24.35;10.73;;;;;;;10.09;61.42;101466.00;4948974;28;20133;-77
2022/05/21 04:53:30;;;;;;;21.25;10.85;;;;;;;10.04;61.64;101466.16;4966300;28;20281;-79
2022/05/21 04:55:55;;;;;;;17.38;9.68;;;;;;;10.36;61.01;101465.19;4967869;28;20166;-78
2022/05/21 04:58:21;;;;;;;18.50;10.05;;;;;;;10.23;61.09;101456.00;4952861;28;20134;-79
2022/05/21 05:00:48;;;;;;;23.00;9.43;;;;;;;10.18;60.93;101461.38;4966276;28;20257;-78
2022/05/21 05:03:16;;;;;;;19.08;9.27;;;;;;;10.07;61.44;101463.44;4949664;28;20039;-78
2022/05/21 05:05:42;;;;;;;19.08;8.63;;;;;;;10.54;60.14;101463.78;4939529;28;20031;-76
2022/05/21 05:08:09;;;;;;;14.98;6.70;;;;;;;9.98;61.83;101461.09;4950272;28;20094;-76
2022/05/21 05:10:36;;;;;;;13.65;7.00;;;;;;;10.09;61.11;101459.03;4937849;28;20039;-77
2022/05/21 05:13:05;;;;;;;10.60;5.97;;;;;;;10.53;60.18;101450.78;4948361;28;20046;-78
2022/05/21 05:15:30;;;;;;;19.85;6.43;;;;;;;11.01;58.43;101461.47;4958127;28;20030;-77
2022/05/21 05:18:08;;;;;;;9.60;5.50;;;;;;;10.70;59.17;101469.41;4949640;28;20101;-78
2022/05/21 05:20:34;;;;;;;14.38;4.90;;;;;;;11.38;57.83;101460.25;4969733;28;20494;-76
2022/05/21 05:23:00;;;;;;;8.55;3.70;;;;;;;11.49;56.56;101464.28;4951285;28;20102;-79
2022/05/21 05:25:26;;;;;;;12.10;3.30;;;;;;;11.77;56.81;101464.16;4941874;28;20038;-77
2022/05/21 05:27:51;;;;;;;7.05;4.25;;;;;;;12.06;55.17;101461.34;4954665;28;20047;-78
2022/05/21 05:30:19;;;;;;;10.52;2.88;;;;;;;12.34;54.64;101465.56;4957275;28;20066;-79
2022/05/21 05:32:45;;;;;;;8.65;2.38;;;;;;;13.11;52.88;101471.28;4955047;28;20081;-78
2022/05/21 05:35:12;;;;;;;5.25;1.38;;;;;;;14.31;49.28;101460.81;4937391;28;20035;-78
2022/05/21 05:37:39;;;;;;;7.07;1.35;;;;;;;14.77;46.52;101465.72;4951825;28;20094;-76
2022/05/21 05:40:07;;;;;;;4.82;0.88;;;;;;;14.53;46.55;101467.75;4956740;28;20102;-78
2022/05/21 05:42:37;;;;;;;9.82;1.25;;;;;;;12.80;50.85;101469.03;4954347;28;20043;-79
2022/05/21 05:45:05;;;;;;;4.57;0.70;;;;;;;12.21;52.16;101475.66;4939863;28;20438;-78
2022/05/21 05:47:31;;;;;;;2.67;0.40;;;;;;;10.76;56.61;101481.44;4949164;28;20241;-80
2022/05/21 05:49:57;;;;;;;4.85;0.50;;;;;;;10.60;57.46;101481.06;4956622;28;20034;-79
2022/05/21 05:52:24;;;;;;;4.95;0.50;;;;;;;10.75;57.83;101487.56;4970184;28;20051;-77
2022/05/21 05:54:49;;;;;;;9.00;0.43;;;;;;;11.02;57.01;101489.34;4950542;28;20103;-77
2022/05/21 05:57:15;;;;;;;6.13;0.60;;;;;;;10.90;56.75;101486.25;4949259;28;20491;-77
2022/05/21 05:59:50;;;;;;;9.00;1.00;;;;;;;10.88;56.76;101478.44;4953945;28;20038;-78
2022/05/21 06:05:14;;;;;;;7.38;1.33;;;;;;;10.76;56.59;101499.75;4963253;28;20034;-78
2022/05/21 06:07:42;;;;;;;6.65;0.98;;;;;;;10.46;57.44;101491.94;4951876;28;20143;-78
2022/05/21 06:10:08;;;;;;;7.32;0.68;;;;;;;10.24;57.46;101507.38;4949503;28;20101;-79
2022/05/21 06:12:33;;;;;;;3.83;0.98;;;;;;;9.96;59.06;101502.06;4963121;28;20039;-79
2022/05/21 06:14:58;;;;;;;8.02;0.73;;;;;;;9.77;59.18;101523.41;4965939;28;20434;-78
2022/05/21 06:17:26;;;;;;;9.60;0.70;;;;;;;10.68;56.73;101513.03;4959210;28;20043;-81
2022/05/21 06:19:54;;;;;;;6.60;1.58;;;;;;;10.92;56.51;101511.47;4951950;28;20078;-77
2022/05/21 06:22:20;;;;;;;9.45;0.60;;;;;;;10.56;57.65;101510.78;4968847;28;20030;-77
2022/05/21 06:24:45;;;;;;;13.73;2.47;;;;;;;10.46;57.59;101519.78;4953614;28;20400;-78
2022/05/21 06:27:11;;;;;;;9.73;0.93;;;;;;;10.87;56.15;101518.59;4956674;28;20069;-80
2022/05/21 06:29:36;;;;;;;4.10;0.50;;;;;;;10.96;55.84;101527.91;4955278;28;20564;-80
2022/05/21 06:32:07;;;;;;;5.22;0.82;;;;;;;11.34;55.35;101528.47;4957459;28;20136;-79
2022/05/21 06:34:35;;;;;;;7.30;0.63;;;;;;;11.45;54.85;101531.56;4952236;28;20126;-78
2022/05/21 06:37:06;;;;;;;11.20;0.52;;;;;;;11.82;54.67;101541.69;4965136;28;20066;-77
2022/05/21 06:39:33;;;;;;;6.68;1.10;;;;;;;11.34;53.85;101539.78;4954483;28;20043;-76
2022/05/21 06:41:59;;;;;;;7.07;1.20;;;;;;;12.11;52.86;101546.81;4941604;28;20023;-77
2022/05/21 06:44:26;;;;;;;6.70;1.30;;;;;;;12.59;52.41;101549.38;4967798;28;20043;-79
2022/05/21 06:46:53;;;;;;;11.32;1.38;;;;;;;12.32;52.17;101553.06;4961598;28;20158;-80
2022/05/21 06:49:19;;;;;;;1.80;0.47;;;;;;;11.71;53.11;101553.38;4952648;28;20031;-78
2022/05/21 06:51:45;;;;;;;7.35;0.50;;;;;;;11.21;53.92;101562.84;4951491;28;20047;-80
2022/05/21 06:54:12;;;;;;;6.38;1.05;;;;;;;11.05;53.70;101565.09;4947368;28;20056;-80
2022/05/21 06:56:41;;;;;;;8.45;0.85;;;;;;;11.17;54.14;101569.13;4962164;28;20592;-81
2022/05/21 06:59:07;;;;;;;3.63;0.50;;;;;;;10.99;53.79;101565.28;4950740;28;20051;-78
2022/05/21 07:01:32;;;;;;;11.95;0.98;;;;;;;11.62;52.54;101572.88;4940895;28;20035;-79
2022/05/21 07:03:58;;;;;;;6.72;0.70;;;;;;;12.12;52.09;101570.34;4952207;28;20045;-79
2022/05/21 07:09:08;;;;;;;7.70;0.50;;;;;;;12.62;49.87;101585.97;4968083;28;20055;-80
2022/05/21 07:11:33;;;;;;;12.02;0.73;;;;;;;12.06;50.98;101586.28;4957845;28;20035;-80
2022/05/21 07:13:59;;;;;;;7.00;1.25;;;;;;;11.33;52.26;101595.66;4968632;28;20043;-79
2022/05/21 07:16:25;;;;;;;7.55;0.60;;;;;;;11.60;51.66;101598.28;4956936;28;20019;-78
2022/05/21 07:18:50;;;;;;;1.77;0.50;;;;;;;12.20;49.94;101598.88;4955232;28;20050;-78
2022/05/21 07:21:18;;;;;;;6.88;0.80;;;;;;;12.63;49.93;101598.19;4958880;28;20031;-81
2022/05/21 07:23:45;;;;;;;13.20;0.65;;;;;;;12.26;50.02;101612.63;4953877;28;20103;-77
2022/05/21 07:26:11;;;;;;;5.32;0.43;;;;;;;12.41;49.91;101605.13;4956871;28;20658;-80
2022/05/21 07:28:37;;;;;;;5.60;0.52;;;;;;;12.03;50.30;101612.59;4960261;28;20062;-76
2022/05/21 07:31:03;;;;;;;8.18;1.10;;;;;;;12.51;48.98;101614.38;4954149;28;20125;-79
2022/05/21 07:33:29;;;;;;;8.48;0.47;;;;;;;12.93;48.98;101618.97;4950437;28;20134;-78
2022/05/21 07:35:54;;;;;;;3.53;0.70;;;;;;;11.80;50.90;101629.94;4956629;28;20126;-80
2022/05/21 07:38:20;;;;;;;5.70;1.38;;;;;;;12.31;49.91;101627.34;4939894;28;20089;-79
2022/05/21 07:40:47;;;;;;;8.52;1.00;;;;;;;12.34;50.21;101632.50;4962098;28;20031;-79
2022/05/21 07:43:22;;;;;;;9.70;1.33;;;;;;;12.03;50.78;101629.16;4960739;28;20122;-80
2022/05/21 07:45:49;;;;;;;9.10;1.08;;;;;;;12.27;50.13;101632.69;4959355;28;20165;-78
2022/05/21 07:48:18;;;;;;;7.65;0.70;;;;;;;12.34;49.66;101635.97;4950702;28;20097;-81
2022/05/21 07:50:47;;;;;;;11.55;1.52;;;;;;;13.49;47.67;101636.88;4955867;28;20082;-73
2022/05/21 07:53:15;;;;;;;4.55;0.38;;;;;;;13.75;46.66;101640.25;4954144;28;20055;-79
2022/05/21 07:55:46;;;;;;;6.82;1.17;;;;;;;13.09;47.39;101648.97;4936920;28;20035;-79
2022/05/21 07:58:11;;;;;;;3.38;0.50;;;;;;;13.87;46.57;101641.50;4940194;28;20932;-81
2022/05/21 08:00:38;;;;;;;7.55;0.50;;;;;;;13.85;46.81;101649.47;4955553;28;20081;-81
2022/05/21 08:03:04;;;;;;;7.55;1.10;;;;;;;13.85;47.59;101649.47;4952066;28;20047;-80
2022/05/21 08:05:30;;;;;;;11.80;1.63;;;;;;;14.71;46.51;101651.03;4956966;28;20664;-78
2022/05/21 08:07:56;;;;;;;8.82;1.20;;;;;;;15.31;45.29;101655.34;4965288;28;20042;-76
2022/05/21 08:10:25;;;;;;;6.00;0.93;;;;;;;15.93;39.65;101648.78;4970562;28;20937;-77
2022/05/21 08:12:52;;;;;;;9.70;0.77;;;;;;;16.04;40.26;101660.56;4959021;28;20043;-79
2022/05/21 08:15:19;;;;;;;3.40;0.70;;;;;;;16.28;39.95;101658.47;4936844;28;20128;-78
2022/05/21 08:17:45;;;;;;;12.18;0.70;;;;;;;18.60;36.46;101658.63;4957110;28;20059;-80
2022/05/21 08:20:12;;;;;;;5.97;0.55;;;;;;;17.94;35.28;101666.09;4961018;28;20156;-77
2022/05/21 08:28:08;;;;;;;5.97;1.08;;;;;;;15.53;39.12;101677.09;4965043;28;20049;-81
2022/05/21 08:30:34;;;;;;;8.18;0.55;;;;;;;14.61;42.03;101673.41;4955943;28;20031;-80
2022/05/21 08:33:05;;;;;;;5.85;0.77;;;;;;;16.10;40.35;101678.72;4949846;28;20055;-79
2022/05/21 08:35:31;;;;;;;6.93;0.73;;;;;;;16.25;38.74;101677.09;4954237;28;20042;-77
2022/05/21 08:37:58;;;;;;;3.75;0.32;;;;;;;14.77;40.88;101681.50;4951898;28;20081;-79
2022/05/21 08:40:37;;;;;;;3.85;1.33;;;;;;;14.80;41.05;101693.66;4953184;28;20062;-79
2022/05/21 08:43:05;;;;;;;8.02;0.50;;;;;;;14.99;40.70;101686.59;4951646;28;20519;-78
2022/05/21 08:45:58;;;;;;;3.08;0.40;;;;;;;15.49;39.87;101691.34;4942425;28;20228;-78
2022/05/21 08:48:27;;;;;;;4.18;1.00;;;;;;;14.24;42.54;101696.03;4953135;28;20043;-78
2022/05/21 08:50:54;;;;;;;3.03;0.35;;;;;;;14.72;43.03;101702.75;4941733;28;20101;-79
2022/05/21 08:53:24;;;;;;;6.55;0.73;;;;;;;14.96;41.02;101695.50;4956266;28;20400;-78
2022/05/21 08:55:53;;;;;;;8.67;1.07;;;;;;;15.31;40.28;101693.06;4951869;28;20134;-77
2022/05/21 08:58:35;;;;;;;2.72;0.50;;;;;;;16.13;40.33;101699.66;4950635;28;20035;-79
2022/05/21 09:01:00;;;;;;;4.38;0.45;;;;;;;15.78;39.36;101702.25;4956897;28;20466;-79
2022/05/21 09:03:27;;;;;;;3.85;0.77;;;;;;;17.32;38.82;101699.56;4954901;28;20047;-79
2022/05/21 09:06:11;;;;;;;5.15;0.50;;;;;;;20.05;32.85;101697.94;4957271;28;20031;-78
2022/05/21 09:08:37;;;;;;;6.68;0.70;;;;;;;19.76;32.13;101698.06;4967385;28;20035;-80
2022/05/21 09:11:11;;;;;;;4.55;0.65;;;;;;;18.85;33.18;101703.84;4957408;28;20527;-76
2022/05/21 09:13:59;;;;;;;6.93;0.60;;;;;;;17.01;36.13;101706.53;4956510;28;20483;-78
2022/05/21 09:19:09;;;;;;;5.88;0.80;;;;;;;15.94;40.14;101719.00;4967886;28;20391;-79
2022/05/21 09:21:41;;;;;;;5.97;1.02;;;;;;;17.53;38.00;101708.13;4943192;28;20046;-78
2022/05/21 09:24:08;;;;;;;9.88;0.90;;;;;;;18.68;35.12;101711.97;4938685;28;20051;-79
2022/05/21 09:26:51;;;;;;;7.07;1.15;;;;;;;17.94;35.24;101713.69;4966541;28;20027;-78
2022/05/21 09:29:21;;;;;;;7.60;1.63;;;;;;;15.40;39.51;101717.28;4954210;28;20560;-78
2022/05/21 09:31:47;;;;;;;11.52;0.68;;;;;;;16.07;39.48;101729.00;4964077;28;20034;-78
2022/05/21 09:34:13;;;;;;;9.25;0.82;;;;;;;17.67;37.04;101720.53;4952744;28;20544;-79
2022/05/21 09:36:39;;;;;;;2.33;0.47;;;;;;;18.04;36.04;101719.28;4952982;28;20118;-80
2022/05/21 09:39:05;;;;;;;5.18;0.50;;;;;;;16.93;37.17;101732.50;4948369;28;20047;-79
2022/05/21 09:41:33;;;;;;;3.05;0.50;;;;;;;16.21;39.12;101732.63;4954177;28;20035;-81
2022/05/21 09:47:24;;;;;;;4.45;0.60;;;;;;;16.08;39.28;101736.81;4965229;28;20054;-79
2022/05/21 09:50:07;;;;;;;10.93;0.77;;;;;;;16.26;39.15;101740.31;4954740;28;20915;-78
2022/05/21 09:52:34;;;;;;;11.60;0.70;;;;;;;16.36;37.94;101744.19;4951881;28;20058;-78
2022/05/21 09:55:18;;;;;;;7.97;0.60;;;;;;;16.00;37.69;101750.38;4966825;28;20456;-78
2022/05/21 09:57:45;;;;;;;2.42;0.38;;;;;;;17.23;36.08;101744.06;4965143;28;20430;-78
2022/05/21 10:00:32;;;;;;;8.00;0.60;;;;;;;16.91;36.43;101731.72;4952477;28;20035;-78
2022/05/21 10:03:01;;;;;;;7.55;1.25;;;;;;;17.11;35.12;101742.06;4949849;28;20779;-79
2022/05/21 10:05:32;;;;;;;3.08;0.20;;;;;;;18.32;34.59;101750.31;4961742;28;20118;-82
2022/05/21 10:11:23;;;;;;;12.93;1.08;;;;;;;16.37;36.47;101764.34;4964177;28;20515;-77
2022/05/21 10:13:54;;;;;;;9.07;1.00;;;;;;;15.17;38.60;101762.16;4965748;28;20121;-77
2022/05/21 10:16:44;;;;;;;4.25;0.50;;;;;;;14.82;39.05;101770.75;4937332;28;21043;-79
2022/05/21 10:19:21;;;;;;;7.57;0.38;;;;;;;15.28;39.11;101772.22;4957116;28;20098;-78
2022/05/21 10:21:58;;;;;;;3.35;0.38;;;;;;;15.46;38.97;101781.06;4958020;28;20031;-78
2022/05/21 10:24:53;;;;;;;7.10;1.08;;;;;;;16.47;37.05;101777.97;4961091;28;20054;-79
2022/05/21 10:27:33;;;;;;;3.33;0.35;;;;;;;15.83;37.49;101778.47;4963909;28;20069;-80
2022/05/21 10:30:08;;;;;;;2.72;0.45;;;;;;;15.78;37.22;101781.31;4959373;28;20532;-78
2022/05/21 10:32:58;;;;;;;3.60;0.55;;;;;;;14.95;39.04;101790.34;4969907;28;20533;-78
2022/05/21 10:35:44;;;;;;;6.53;0.50;;;;;;;14.32;40.91;101790.34;4971794;28;20893;-78
2022/05/21 10:38:21;;;;;;;10.55;2.10;;;;;;;15.03;39.50;101788.22;4958623;28;20054;-82
2022/05/21 10:40:56;;;;;;;4.93;0.57;;;;;;;14.58;40.11;101796.34;4967582;28;20182;-79
2022/05/21 10:43:44;;;;;;;5.32;0.82;;;;;;;16.80;38.81;101787.72;4956861;28;20047;-77
2022/05/21 10:46:29;;;;;;;9.85;0.85;;;;;;;16.19;36.93;101786.38;4967707;28;20161;-78
2022/05/21 10:49:19;;;;;;;6.90;0.77;;;;;;;15.86;37.01;101794.97;4960424;28;20351;-78
2022/05/21 10:51:55;;;;;;;6.97;0.80;;;;;;;15.85;37.17;101795.91;4956844;28;20074;-78
2022/05/21 10:54:39;;;;;;;9.07;0.98;;;;;;;16.77;36.96;101794.03;4961193;28;20764;-78
2022/05/21 10:57:31;;;;;;;10.82;0.70;;;;;;;15.83;37.23;101800.41;4957282;28;20035;-79
2022/05/21 11:00:03;;;;;;;7.82;0.55;;;;;;;15.72;37.62;101806.16;4956153;28;20069;-80
2022/05/21 11:03:03;;;;;;;3.67;0.40;;;;;;;15.53;38.18;101819.38;4956403;28;20042;-77
2022/05/21 11:06:05;;;;;;;5.43;1.00;;;;;;;15.52;38.68;101807.09;4973729;28;20501;-79
2022/05/21 11:08:41;;;;;;;2.97;0.25;;;;;;;16.30;36.62;101807.81;4957630;28;20047;-82
2022/05/21 11:11:26;;;;;;;2.63;0.45;;;;;;;15.96;37.78;101814.69;4953558;28;20608;-82
2022/05/21 11:14:08;;;;;;;5.18;0.43;;;;;;;16.24;36.08;101809.91;4960402;28;20047;-79
2022/05/21 11:16:41;;;;;;;4.28;0.60;;;;;;;15.67;37.00;101809.97;4968659;28;20140;-80
2022/05/21 11:19:22;;;;;;;4.75;0.52;;;;;;;15.63;36.43;101811.03;4952619;28;20051;-80
2022/05/21 11:21:50;;;;;;;3.40;0.28;;;;;;;14.95;37.74;101822.78;4951801;28;20042;-79
2022/05/21 11:24:26;;;;;;;3.63;0.68;;;;;;;14.92;37.38;101827.31;4968699;28;20043;-77
2022/05/21 11:27:34;;;;;;;11.52;0.70;;;;;;;15.88;37.10;101818.63;4967358;28;20035;-78
2022/05/21 11:30:09;;;;;;;6.35;0.28;;;;;;;16.23;36.34;101819.59;4881924;29;20075;-78
2022/05/21 11:38:40;;;;;;;6.50;0.88;;;;;;;17.02;36.30;101813.88;4965829;28;20038;-80
2022/05/21 11:41:28;;;;;;;3.92;0.32;;;;;;;17.67;34.83;101816.59;4952960;28;20515;-76
2022/05/21 11:46:50;;;;;;;8.45;0.88;;;;;;;15.92;36.79;101821.03;4927062;28;20047;-81
2022/05/21 11:49:50;;;;;;;3.85;0.65;;;;;;;16.15;36.86;101827.91;4959059;28;20109;-80
2022/05/21 11:52:27;;;;;;;4.50;0.20;;;;;;;15.38;37.40;101838.50;4953283;28;20039;-78
2022/05/21 11:54:53;;;;;;;7.28;0.28;;;;;;;15.47;37.51;101830.19;4951022;28;20038;-80
2022/05/21 11:57:37;;;;;;;3.40;0.68;;;;;;;15.78;36.35;101834.03;4965456;28;20090;-77
2022/05/21 12:00:11;;;;;;;3.50;0.32;;;;;;;16.92;34.60;101836.41;4959430;28;20651;-78
2022/05/21 12:03:00;;;;;;;5.95;0.55;;;;;;;17.34;34.37;101830.66;4952653;28;20138;-78
2022/05/21 12:05:38;;;;;;;5.15;0.40;;;;;;;16.39;35.54;101841.66;4969241;28;20457;-81
2022/05/21 12:08:10;;;;;;;4.50;0.75;;;;;;;16.36;35.26;101835.69;4965728;28;20051;-79
2022/05/21 12:11:07;;;;;;;4.18;0.30;;;;;;;16.54;35.20;101849.75;4967859;28;20250;-78